sensor_id;sensor_type;location;lat;lon;timestamp;P1;durP1;ratioP1;P2;durP2;ratioP2
21103;SDS011;10710;53.398;-1.514;2023-09-12T00:00:39;5.18;;;2.25;;
21103;SDS011;10710;53.398;-1.514;2023-09-12T00:03:23;3.33;;;2.10;;
21103;SDS011;10710;53.398;-1.514;2023-09-12T00:06:07;4.38;;;1.92;;
21103;SDS011;10710;53.398;-1.514;2023-09-12T00:08:52;3.72;;;1.92;;
21103;SDS011;10710;53.398;-1.514;2023-09-12T00:11:36;5.30;;;2.40;;
21103;SDS011;10710;53.398;-1.514;2023-09-12T00:14:20;6.97;;;2.00;;
21103;SDS011;10710;53.398;-1.514;2023-09-12T00:17:05;3.83;;;2.08;;
21103;SDS011;10710;53.398;-1.514;2023-09-12T00:19:49;3.22;;;1.90;;
21103;SDS011;10710;53.398;-1.514;2023-09-12T00:22:33;6.20;;;2.33;;
21103;SDS011;10710;53.398;-1.514;2023-09-12T00:25:17;2.58;;;1.73;;
21103;SDS011;10710;53.398;-1.514;2023-09-12T00:28:01;5.43;;;1.90;;
21103;SDS011;10710;53.398;-1.514;2023-09-12T00:30:46;3.20;;;1.60;;
21103;SDS011;10710;53.398;-1.514;2023-09-12T00:33:30;3.28;;;1.48;;
21103;SDS011;10710;53.398;-1.514;2023-09-12T00:36:14;2.72;;;1.85;;
21103;SDS011;10710;53.398;-1.514;2023-09-12T00:38:59;4.68;;;2.08;;
21103;SDS011;10710;53.398;-1.514;2023-09-12T00:41:43;4.13;;;2.20;;
21103;SDS011;10710;53.398;-1.514;2023-09-12T00:44:27;3.50;;;1.92;;
21103;SDS011;10710;53.398;-1.514;2023-09-12T00:47:11;3.67;;;2.03;;
21103;SDS011;10710;53.398;-1.514;2023-09-12T00:49:57;5.20;;;2.15;;
21103;SDS011;10710;53.398;-1.514;2023-09-12T00:52:43;4.72;;;2.38;;
21103;SDS011;10710;53.398;-1.514;2023-09-12T00:55:28;3.60;;;1.70;;
21103;SDS011;10710;53.398;-1.514;2023-09-12T00:58:14;4.55;;;2.05;;
21103;SDS011;10710;53.398;-1.514;2023-09-12T01:00:59;3.28;;;1.48;;
21103;SDS011;10710;53.398;-1.514;2023-09-12T01:03:44;3.83;;;2.08;;
21103;SDS011;10710;53.398;-1.514;2023-09-12T01:06:28;3.35;;;1.58;;
21103;SDS011;10710;53.398;-1.514;2023-09-12T01:09:14;2.83;;;1.50;;
21103;SDS011;10710;53.398;-1.514;2023-09-12T01:11:59;4.13;;;2.10;;
21103;SDS011;10710;53.398;-1.514;2023-09-12T01:14:46;6.45;;;1.65;;
21103;SDS011;10710;53.398;-1.514;2023-09-12T01:17:30;4.63;;;1.63;;
21103;SDS011;10710;53.398;-1.514;2023-09-12T01:20:16;3.38;;;1.70;;
21103;SDS011;10710;53.398;-1.514;2023-09-12T01:23:19;2.10;;;1.33;;
21103;SDS011;10710;53.398;-1.514;2023-09-12T01:26:29;2.28;;;1.35;;
21103;SDS011;10710;53.398;-1.514;2023-09-12T01:29:24;1.80;;;1.38;;
21103;SDS011;10710;53.398;-1.514;2023-09-12T01:32:10;3.33;;;1.97;;
21103;SDS011;10710;53.398;-1.514;2023-09-12T01:34:55;4.18;;;1.73;;
21103;SDS011;10710;53.398;-1.514;2023-09-12T01:37:39;10.90;;;1.75;;
21103;SDS011;10710;53.398;-1.514;2023-09-12T01:40:40;3.00;;;1.67;;
21103;SDS011;10710;53.398;-1.514;2023-09-12T01:43:29;2.25;;;1.20;;
21103;SDS011;10710;53.398;-1.514;2023-09-12T01:46:16;4.07;;;1.50;;
21103;SDS011;10710;53.398;-1.514;2023-09-12T01:49:02;2.30;;;1.33;;
21103;SDS011;10710;53.398;-1.514;2023-09-12T01:51:49;1.63;;;0.95;;
21103;SDS011;10710;53.398;-1.514;2023-09-12T01:54:34;1.67;;;1.20;;
21103;SDS011;10710;53.398;-1.514;2023-09-12T01:57:20;1.55;;;1.15;;
21103;SDS011;10710;53.398;-1.514;2023-09-12T02:00:04;2.43;;;0.93;;
21103;SDS011;10710;53.398;-1.514;2023-09-12T02:02:50;1.48;;;0.98;;
21103;SDS011;10710;53.398;-1.514;2023-09-12T02:05:34;2.72;;;1.25;;
21103;SDS011;10710;53.398;-1.514;2023-09-12T02:08:21;1.40;;;0.93;;
21103;SDS011;10710;53.398;-1.514;2023-09-12T02:11:05;3.58;;;0.98;;
21103;SDS011;10710;53.398;-1.514;2023-09-12T02:13:50;2.10;;;1.27;;
21103;SDS011;10710;53.398;-1.514;2023-09-12T02:16:35;2.17;;;1.40;;
21103;SDS011;10710;53.398;-1.514;2023-09-12T02:19:21;3.33;;;1.70;;
21103;SDS011;10710;53.398;-1.514;2023-09-12T02:22:06;2.10;;;1.38;;
21103;SDS011;10710;53.398;-1.514;2023-09-12T02:24:50;0.87;;;0.80;;
21103;SDS011;10710;53.398;-1.514;2023-09-12T02:27:34;1.45;;;1.00;;
21103;SDS011;10710;53.398;-1.514;2023-09-12T02:30:18;8.32;;;1.60;;
21103;SDS011;10710;53.398;-1.514;2023-09-12T02:33:03;3.55;;;1.50;;
21103;SDS011;10710;53.398;-1.514;2023-09-12T02:35:47;1.63;;;1.08;;
21103;SDS011;10710;53.398;-1.514;2023-09-12T02:38:31;3.33;;;1.40;;
21103;SDS011;10710;53.398;-1.514;2023-09-12T02:41:16;2.55;;;1.40;;
21103;SDS011;10710;53.398;-1.514;2023-09-12T02:44:00;2.00;;;1.30;;
21103;SDS011;10710;53.398;-1.514;2023-09-12T02:46:45;1.55;;;1.15;;
21103;SDS011;10710;53.398;-1.514;2023-09-12T02:49:29;5.43;;;1.50;;
21103;SDS011;10710;53.398;-1.514;2023-09-12T02:52:13;3.35;;;1.40;;
21103;SDS011;10710;53.398;-1.514;2023-09-12T02:54:58;1.45;;;1.00;;
21103;SDS011;10710;53.398;-1.514;2023-09-12T02:57:42;2.10;;;1.00;;
21103;SDS011;10710;53.398;-1.514;2023-09-12T03:00:26;1.13;;;0.90;;
21103;SDS011;10710;53.398;-1.514;2023-09-12T03:03:10;1.88;;;1.10;;
21103;SDS011;10710;53.398;-1.514;2023-09-12T03:05:58;1.85;;;0.93;;
21103;SDS011;10710;53.398;-1.514;2023-09-12T03:08:43;3.13;;;1.42;;
21103;SDS011;10710;53.398;-1.514;2023-09-12T03:11:27;2.77;;;1.50;;
21103;SDS011;10710;53.398;-1.514;2023-09-12T03:14:11;2.75;;;1.10;;
21103;SDS011;10710;53.398;-1.514;2023-09-12T03:16:55;2.92;;;1.25;;
21103;SDS011;10710;53.398;-1.514;2023-09-12T03:19:39;1.17;;;0.98;;
21103;SDS011;10710;53.398;-1.514;2023-09-12T03:22:23;1.40;;;0.60;;
21103;SDS011;10710;53.398;-1.514;2023-09-12T03:25:08;1.05;;;0.60;;
21103;SDS011;10710;53.398;-1.514;2023-09-12T03:27:52;1.83;;;0.73;;
21103;SDS011;10710;53.398;-1.514;2023-09-12T03:30:36;0.60;;;0.60;;
21103;SDS011;10710;53.398;-1.514;2023-09-12T03:33:21;0.63;;;0.50;;
21103;SDS011;10710;53.398;-1.514;2023-09-12T03:36:06;2.10;;;0.95;;
21103;SDS011;10710;53.398;-1.514;2023-09-12T03:38:51;2.42;;;0.82;;
21103;SDS011;10710;53.398;-1.514;2023-09-12T03:41:35;1.02;;;0.70;;
21103;SDS011;10710;53.398;-1.514;2023-09-12T03:44:20;1.45;;;0.70;;
21103;SDS011;10710;53.398;-1.514;2023-09-12T03:47:04;0.75;;;0.75;;
21103;SDS011;10710;53.398;-1.514;2023-09-12T03:49:48;1.75;;;0.95;;
21103;SDS011;10710;53.398;-1.514;2023-09-12T03:52:32;0.93;;;0.80;;
21103;SDS011;10710;53.398;-1.514;2023-09-12T03:55:16;1.17;;;0.70;;
21103;SDS011;10710;53.398;-1.514;2023-09-12T03:58:01;1.20;;;0.80;;
21103;SDS011;10710;53.398;-1.514;2023-09-12T04:00:46;1.37;;;0.93;;
21103;SDS011;10710;53.398;-1.514;2023-09-12T04:03:30;2.60;;;1.25;;
21103;SDS011;10710;53.398;-1.514;2023-09-12T04:06:14;1.75;;;1.10;;
21103;SDS011;10710;53.398;-1.514;2023-09-12T04:08:58;8.82;;;1.70;;
21103;SDS011;10710;53.398;-1.514;2023-09-12T04:11:42;3.63;;;1.70;;
21103;SDS011;10710;53.398;-1.514;2023-09-12T04:14:26;3.63;;;1.95;;
21103;SDS011;10710;53.398;-1.514;2023-09-12T04:17:10;2.13;;;1.45;;
21103;SDS011;10710;53.398;-1.514;2023-09-12T04:19:54;4.57;;;2.13;;
21103;SDS011;10710;53.398;-1.514;2023-09-12T04:22:38;4.10;;;2.03;;
21103;SDS011;10710;53.398;-1.514;2023-09-12T04:25:23;4.07;;;1.67;;
21103;SDS011;10710;53.398;-1.514;2023-09-12T04:28:07;1.95;;;1.60;;
21103;SDS011;10710;53.398;-1.514;2023-09-12T04:30:51;2.08;;;1.30;;
21103;SDS011;10710;53.398;-1.514;2023-09-12T04:33:43;1.35;;;1.23;;
21103;SDS011;10710;53.398;-1.514;2023-09-12T04:36:28;1.58;;;1.08;;
21103;SDS011;10710;53.398;-1.514;2023-09-12T04:39:12;1.20;;;0.90;;
21103;SDS011;10710;53.398;-1.514;2023-09-12T04:41:57;1.48;;;1.10;;
21103;SDS011;10710;53.398;-1.514;2023-09-12T04:44:41;1.70;;;1.08;;
21103;SDS011;10710;53.398;-1.514;2023-09-12T04:47:25;1.93;;;1.10;;
21103;SDS011;10710;53.398;-1.514;2023-09-12T04:50:11;1.20;;;0.90;;
21103;SDS011;10710;53.398;-1.514;2023-09-12T04:52:55;0.97;;;0.90;;
21103;SDS011;10710;53.398;-1.514;2023-09-12T04:55:39;0.80;;;0.60;;
21103;SDS011;10710;53.398;-1.514;2023-09-12T04:58:23;4.50;;;0.70;;
21103;SDS011;10710;53.398;-1.514;2023-09-12T05:01:08;1.17;;;0.73;;
21103;SDS011;10710;53.398;-1.514;2023-09-12T05:03:52;0.60;;;0.60;;
21103;SDS011;10710;53.398;-1.514;2023-09-12T05:06:36;0.68;;;0.45;;
21103;SDS011;10710;53.398;-1.514;2023-09-12T05:09:21;0.65;;;0.55;;
21103;SDS011;10710;53.398;-1.514;2023-09-12T05:12:05;0.43;;;0.43;;
21103;SDS011;10710;53.398;-1.514;2023-09-12T05:14:50;0.50;;;0.47;;
21103;SDS011;10710;53.398;-1.514;2023-09-12T05:17:34;1.05;;;0.65;;
21103;SDS011;10710;53.398;-1.514;2023-09-12T05:20:18;0.30;;;0.30;;
21103;SDS011;10710;53.398;-1.514;2023-09-12T05:23:03;1.40;;;0.70;;
21103;SDS011;10710;53.398;-1.514;2023-09-12T05:25:48;0.70;;;0.60;;
21103;SDS011;10710;53.398;-1.514;2023-09-12T05:28:33;0.52;;;0.40;;
21103;SDS011;10710;53.398;-1.514;2023-09-12T05:31:18;0.90;;;0.70;;
21103;SDS011;10710;53.398;-1.514;2023-09-12T05:34:02;0.60;;;0.50;;
21103;SDS011;10710;53.398;-1.514;2023-09-12T05:36:46;1.90;;;0.50;;
21103;SDS011;10710;53.398;-1.514;2023-09-12T05:39:30;2.00;;;0.57;;
21103;SDS011;10710;53.398;-1.514;2023-09-12T05:42:14;1.42;;;0.60;;
21103;SDS011;10710;53.398;-1.514;2023-09-12T05:45:06;0.47;;;0.45;;
21103;SDS011;10710;53.398;-1.514;2023-09-12T05:47:50;2.25;;;0.50;;
21103;SDS011;10710;53.398;-1.514;2023-09-12T05:50:38;0.45;;;0.43;;
21103;SDS011;10710;53.398;-1.514;2023-09-12T05:53:23;0.68;;;0.50;;
21103;SDS011;10710;53.398;-1.514;2023-09-12T05:56:07;0.67;;;0.60;;
21103;SDS011;10710;53.398;-1.514;2023-09-12T05:58:51;1.20;;;0.70;;
21103;SDS011;10710;53.398;-1.514;2023-09-12T06:01:35;0.65;;;0.50;;
21103;SDS011;10710;53.398;-1.514;2023-09-12T06:04:19;1.25;;;0.68;;
21103;SDS011;10710;53.398;-1.514;2023-09-12T06:07:03;0.90;;;0.60;;
21103;SDS011;10710;53.398;-1.514;2023-09-12T06:09:48;0.40;;;0.40;;
21103;SDS011;10710;53.398;-1.514;2023-09-12T06:12:32;0.60;;;0.50;;
21103;SDS011;10710;53.398;-1.514;2023-09-12T06:15:16;2.70;;;0.80;;
21103;SDS011;10710;53.398;-1.514;2023-09-12T06:18:00;1.60;;;0.60;;
21103;SDS011;10710;53.398;-1.514;2023-09-12T06:20:44;1.40;;;1.00;;
21103;SDS011;10710;53.398;-1.514;2023-09-12T06:23:29;1.20;;;0.80;;
21103;SDS011;10710;53.398;-1.514;2023-09-12T06:26:13;0.57;;;0.57;;
21103;SDS011;10710;53.398;-1.514;2023-09-12T06:28:58;3.60;;;0.80;;
21103;SDS011;10710;53.398;-1.514;2023-09-12T06:31:42;0.50;;;0.50;;
21103;SDS011;10710;53.398;-1.514;2023-09-12T06:34:26;1.60;;;0.98;;
21103;SDS011;10710;53.398;-1.514;2023-09-12T06:37:11;0.80;;;0.60;;
21103;SDS011;10710;53.398;-1.514;2023-09-12T06:39:55;0.82;;;0.60;;
21103;SDS011;10710;53.398;-1.514;2023-09-12T06:42:39;0.82;;;0.40;;
21103;SDS011;10710;53.398;-1.514;2023-09-12T06:45:24;0.50;;;0.50;;
21103;SDS011;10710;53.398;-1.514;2023-09-12T06:48:09;0.50;;;0.50;;
21103;SDS011;10710;53.398;-1.514;2023-09-12T06:50:54;1.00;;;0.68;;
21103;SDS011;10710;53.398;-1.514;2023-09-12T06:53:38;0.80;;;0.40;;
21103;SDS011;10710;53.398;-1.514;2023-09-12T06:56:22;0.70;;;0.40;;
21103;SDS011;10710;53.398;-1.514;2023-09-12T06:59:07;1.00;;;0.50;;
21103;SDS011;10710;53.398;-1.514;2023-09-12T07:01:51;0.60;;;0.50;;
21103;SDS011;10710;53.398;-1.514;2023-09-12T07:04:35;0.70;;;0.70;;
21103;SDS011;10710;53.398;-1.514;2023-09-12T07:07:19;1.45;;;0.60;;
21103;SDS011;10710;53.398;-1.514;2023-09-12T07:10:04;0.67;;;0.67;;
21103;SDS011;10710;53.398;-1.514;2023-09-12T07:12:50;0.43;;;0.40;;
21103;SDS011;10710;53.398;-1.514;2023-09-12T07:15:35;0.60;;;0.52;;
21103;SDS011;10710;53.398;-1.514;2023-09-12T07:18:19;2.70;;;0.50;;
21103;SDS011;10710;53.398;-1.514;2023-09-12T07:21:04;2.60;;;0.70;;
21103;SDS011;10710;53.398;-1.514;2023-09-12T07:23:50;0.60;;;0.60;;
21103;SDS011;10710;53.398;-1.514;2023-09-12T07:26:34;1.02;;;0.70;;
21103;SDS011;10710;53.398;-1.514;2023-09-12T07:29:18;0.50;;;0.50;;
21103;SDS011;10710;53.398;-1.514;2023-09-12T07:32:03;2.90;;;0.52;;
21103;SDS011;10710;53.398;-1.514;2023-09-12T07:34:48;1.52;;;0.82;;
21103;SDS011;10710;53.398;-1.514;2023-09-12T07:37:32;0.80;;;0.70;;
21103;SDS011;10710;53.398;-1.514;2023-09-12T07:40:16;0.55;;;0.50;;
21103;SDS011;10710;53.398;-1.514;2023-09-12T07:43:00;0.73;;;0.60;;
21103;SDS011;10710;53.398;-1.514;2023-09-12T07:45:45;0.68;;;0.47;;
21103;SDS011;10710;53.398;-1.514;2023-09-12T07:48:29;0.90;;;0.77;;
21103;SDS011;10710;53.398;-1.514;2023-09-12T07:51:13;1.80;;;1.00;;
21103;SDS011;10710;53.398;-1.514;2023-09-12T07:53:58;1.35;;;0.60;;
21103;SDS011;10710;53.398;-1.514;2023-09-12T07:56:43;1.05;;;0.80;;
21103;SDS011;10710;53.398;-1.514;2023-09-12T07:59:27;0.77;;;0.60;;
21103;SDS011;10710;53.398;-1.514;2023-09-12T08:02:11;2.65;;;1.15;;
21103;SDS011;10710;53.398;-1.514;2023-09-12T08:04:56;2.03;;;0.52;;
21103;SDS011;10710;53.398;-1.514;2023-09-12T08:07:40;0.55;;;0.55;;
21103;SDS011;10710;53.398;-1.514;2023-09-12T08:10:24;1.35;;;0.70;;
21103;SDS011;10710;53.398;-1.514;2023-09-12T08:13:08;1.20;;;0.80;;
21103;SDS011;10710;53.398;-1.514;2023-09-12T08:15:52;3.47;;;0.63;;
21103;SDS011;10710;53.398;-1.514;2023-09-12T08:18:37;0.88;;;0.50;;
21103;SDS011;10710;53.398;-1.514;2023-09-12T08:21:21;0.45;;;0.40;;
21103;SDS011;10710;53.398;-1.514;2023-09-12T08:24:06;0.63;;;0.45;;
21103;SDS011;10710;53.398;-1.514;2023-09-12T08:26:50;0.93;;;0.68;;
21103;SDS011;10710;53.398;-1.514;2023-09-12T08:29:35;1.00;;;0.60;;
21103;SDS011;10710;53.398;-1.514;2023-09-12T08:32:19;0.90;;;0.50;;
21103;SDS011;10710;53.398;-1.514;2023-09-12T08:35:03;1.77;;;0.98;;
21103;SDS011;10710;53.398;-1.514;2023-09-12T08:37:48;0.40;;;0.40;;
21103;SDS011;10710;53.398;-1.514;2023-09-12T08:40:32;2.88;;;0.50;;
21103;SDS011;10710;53.398;-1.514;2023-09-12T08:43:20;0.98;;;0.75;;
21103;SDS011;10710;53.398;-1.514;2023-09-12T08:46:04;4.90;;;0.52;;
21103;SDS011;10710;53.398;-1.514;2023-09-12T08:48:49;1.30;;;0.70;;
21103;SDS011;10710;53.398;-1.514;2023-09-12T08:51:39;1.17;;;0.73;;
21103;SDS011;10710;53.398;-1.514;2023-09-12T08:54:23;0.80;;;0.60;;
21103;SDS011;10710;53.398;-1.514;2023-09-12T08:57:07;0.85;;;0.55;;
21103;SDS011;10710;53.398;-1.514;2023-09-12T08:59:55;0.73;;;0.60;;
21103;SDS011;10710;53.398;-1.514;2023-09-12T09:02:40;0.60;;;0.55;;
21103;SDS011;10710;53.398;-1.514;2023-09-12T09:05:26;0.40;;;0.40;;
21103;SDS011;10710;53.398;-1.514;2023-09-12T09:08:12;0.60;;;0.60;;
21103;SDS011;10710;53.398;-1.514;2023-09-12T09:10:58;1.13;;;0.70;;
21103;SDS011;10710;53.398;-1.514;2023-09-12T09:13:49;0.80;;;0.80;;
21103;SDS011;10710;53.398;-1.514;2023-09-12T09:16:33;1.70;;;0.68;;
21103;SDS011;10710;53.398;-1.514;2023-09-12T09:19:19;2.55;;;0.80;;
21103;SDS011;10710;53.398;-1.514;2023-09-12T09:22:06;2.70;;;0.70;;
21103;SDS011;10710;53.398;-1.514;2023-09-12T09:24:52;2.42;;;1.02;;
21103;SDS011;10710;53.398;-1.514;2023-09-12T09:27:54;1.15;;;0.93;;
21103;SDS011;10710;53.398;-1.514;2023-09-12T09:30:39;2.15;;;0.90;;
21103;SDS011;10710;53.398;-1.514;2023-09-12T09:33:24;5.50;;;0.88;;
21103;SDS011;10710;53.398;-1.514;2023-09-12T09:36:09;3.45;;;1.00;;
21103;SDS011;10710;53.398;-1.514;2023-09-12T09:38:54;1.42;;;0.80;;
21103;SDS011;10710;53.398;-1.514;2023-09-12T09:41:40;1.90;;;0.63;;
21103;SDS011;10710;53.398;-1.514;2023-09-12T09:44:25;1.30;;;0.85;;
21103;SDS011;10710;53.398;-1.514;2023-09-12T09:47:11;1.90;;;1.07;;
21103;SDS011;10710;53.398;-1.514;2023-09-12T09:49:57;1.48;;;0.98;;
21103;SDS011;10710;53.398;-1.514;2023-09-12T09:52:43;1.08;;;0.82;;
21103;SDS011;10710;53.398;-1.514;2023-09-12T09:55:27;5.80;;;3.08;;
21103;SDS011;10710;53.398;-1.514;2023-09-12T09:58:15;1.92;;;1.10;;
21103;SDS011;10710;53.398;-1.514;2023-09-12T10:01:03;1.50;;;0.85;;
21103;SDS011;10710;53.398;-1.514;2023-09-12T10:03:48;3.58;;;1.50;;
21103;SDS011;10710;53.398;-1.514;2023-09-12T10:06:34;1.40;;;0.93;;
21103;SDS011;10710;53.398;-1.514;2023-09-12T10:09:21;1.73;;;1.10;;
21103;SDS011;10710;53.398;-1.514;2023-09-12T10:12:07;1.55;;;1.30;;
21103;SDS011;10710;53.398;-1.514;2023-09-12T10:14:52;2.53;;;1.10;;
21103;SDS011;10710;53.398;-1.514;2023-09-12T10:17:37;2.00;;;1.20;;
21103;SDS011;10710;53.398;-1.514;2023-09-12T10:20:33;2.30;;;1.00;;
21103;SDS011;10710;53.398;-1.514;2023-09-12T10:23:37;2.00;;;1.40;;
21103;SDS011;10710;53.398;-1.514;2023-09-12T10:26:25;2.10;;;1.45;;
21103;SDS011;10710;53.398;-1.514;2023-09-12T10:29:10;1.13;;;1.00;;
21103;SDS011;10710;53.398;-1.514;2023-09-12T10:32:01;0.90;;;0.70;;
21103;SDS011;10710;53.398;-1.514;2023-09-12T10:34:46;2.03;;;1.55;;
21103;SDS011;10710;53.398;-1.514;2023-09-12T10:37:32;2.37;;;1.10;;
21103;SDS011;10710;53.398;-1.514;2023-09-12T10:40:19;1.58;;;1.00;;
21103;SDS011;10710;53.398;-1.514;2023-09-12T10:43:04;1.30;;;0.93;;
21103;SDS011;10710;53.398;-1.514;2023-09-12T10:45:49;1.45;;;0.95;;
21103;SDS011;10710;53.398;-1.514;2023-09-12T10:48:35;1.10;;;0.70;;
21103;SDS011;10710;53.398;-1.514;2023-09-12T10:51:20;1.10;;;0.80;;
21103;SDS011;10710;53.398;-1.514;2023-09-12T10:54:05;1.23;;;0.60;;
21103;SDS011;10710;53.398;-1.514;2023-09-12T11:02:48;1.23;;;1.10;;
21103;SDS011;10710;53.398;-1.514;2023-09-12T11:08:19;1.25;;;0.80;;
21103;SDS011;10710;53.398;-1.514;2023-09-12T11:11:17;0.90;;;0.52;;
21103;SDS011;10710;53.398;-1.514;2023-09-12T11:14:05;1.58;;;0.70;;
21103;SDS011;10710;53.398;-1.514;2023-09-12T11:19:54;1.48;;;0.85;;
21103;SDS011;10710;53.398;-1.514;2023-09-12T11:22:54;0.60;;;0.52;;
21103;SDS011;10710;53.398;-1.514;2023-09-12T11:26:03;1.02;;;0.70;;
21103;SDS011;10710;53.398;-1.514;2023-09-12T11:28:53;0.88;;;0.70;;
21103;SDS011;10710;53.398;-1.514;2023-09-12T11:31:38;1.95;;;0.75;;
21103;SDS011;10710;53.398;-1.514;2023-09-12T11:34:26;1.92;;;0.57;;
21103;SDS011;10710;53.398;-1.514;2023-09-12T11:37:26;2.30;;;0.73;;
21103;SDS011;10710;53.398;-1.514;2023-09-12T11:42:56;0.85;;;0.50;;
21103;SDS011;10710;53.398;-1.514;2023-09-12T11:45:42;2.03;;;0.77;;
21103;SDS011;10710;53.398;-1.514;2023-09-12T11:48:28;0.65;;;0.65;;
21103;SDS011;10710;53.398;-1.514;2023-09-12T11:51:13;0.85;;;0.60;;
21103;SDS011;10710;53.398;-1.514;2023-09-12T11:53:58;0.93;;;0.50;;
21103;SDS011;10710;53.398;-1.514;2023-09-12T11:56:46;1.77;;;1.17;;
21103;SDS011;10710;53.398;-1.514;2023-09-12T11:59:31;1.00;;;0.65;;
21103;SDS011;10710;53.398;-1.514;2023-09-12T12:02:16;0.60;;;0.60;;
21103;SDS011;10710;53.398;-1.514;2023-09-12T12:05:00;1.20;;;0.65;;
21103;SDS011;10710;53.398;-1.514;2023-09-12T12:07:48;1.13;;;0.85;;
21103;SDS011;10710;53.398;-1.514;2023-09-12T12:10:33;0.80;;;0.73;;
21103;SDS011;10710;53.398;-1.514;2023-09-12T12:13:18;2.20;;;0.90;;
21103;SDS011;10710;53.398;-1.514;2023-09-12T12:16:15;0.70;;;0.70;;
21103;SDS011;10710;53.398;-1.514;2023-09-12T12:19:00;1.00;;;0.70;;
21103;SDS011;10710;53.398;-1.514;2023-09-12T12:21:45;5.57;;;1.08;;
21103;SDS011;10710;53.398;-1.514;2023-09-12T12:24:35;1.50;;;0.77;;
21103;SDS011;10710;53.398;-1.514;2023-09-12T12:27:21;1.33;;;0.95;;
21103;SDS011;10710;53.398;-1.514;2023-09-12T12:30:07;1.45;;;0.70;;
21103;SDS011;10710;53.398;-1.514;2023-09-12T12:32:52;1.20;;;0.73;;
21103;SDS011;10710;53.398;-1.514;2023-09-12T12:35:36;0.75;;;0.75;;
21103;SDS011;10710;53.398;-1.514;2023-09-12T12:38:21;0.95;;;0.60;;
21103;SDS011;10710;53.398;-1.514;2023-09-12T12:41:06;1.02;;;0.80;;
21103;SDS011;10710;53.398;-1.514;2023-09-12T12:43:50;1.20;;;1.05;;
21103;SDS011;10710;53.398;-1.514;2023-09-12T12:46:47;1.15;;;0.77;;
21103;SDS011;10710;53.398;-1.514;2023-09-12T12:49:36;3.30;;;1.15;;
21103;SDS011;10710;53.398;-1.514;2023-09-12T12:52:22;1.37;;;0.97;;
21103;SDS011;10710;53.398;-1.514;2023-09-12T12:55:09;1.95;;;0.95;;
21103;SDS011;10710;53.398;-1.514;2023-09-12T12:57:54;2.00;;;0.95;;
21103;SDS011;10710;53.398;-1.514;2023-09-12T13:00:39;1.83;;;1.10;;
21103;SDS011;10710;53.398;-1.514;2023-09-12T13:03:23;4.40;;;1.10;;
21103;SDS011;10710;53.398;-1.514;2023-09-12T13:06:08;3.03;;;1.57;;
21103;SDS011;10710;53.398;-1.514;2023-09-12T13:08:57;3.65;;;1.20;;
21103;SDS011;10710;53.398;-1.514;2023-09-12T13:11:45;1.55;;;0.85;;
21103;SDS011;10710;53.398;-1.514;2023-09-12T13:14:30;1.63;;;1.40;;
21103;SDS011;10710;53.398;-1.514;2023-09-12T13:17:15;1.92;;;1.50;;
21103;SDS011;10710;53.398;-1.514;2023-09-12T13:19:59;1.95;;;1.20;;
21103;SDS011;10710;53.398;-1.514;2023-09-12T13:22:44;1.67;;;1.00;;
21103;SDS011;10710;53.398;-1.514;2023-09-12T13:25:29;4.25;;;1.00;;
21103;SDS011;10710;53.398;-1.514;2023-09-12T13:28:15;1.30;;;1.10;;
21103;SDS011;10710;53.398;-1.514;2023-09-12T13:30:59;1.50;;;0.85;;
21103;SDS011;10710;53.398;-1.514;2023-09-12T13:33:44;1.65;;;1.08;;
21103;SDS011;10710;53.398;-1.514;2023-09-12T13:36:28;1.75;;;1.25;;
21103;SDS011;10710;53.398;-1.514;2023-09-12T13:39:14;3.40;;;1.13;;
21103;SDS011;10710;53.398;-1.514;2023-09-12T13:42:01;3.65;;;0.90;;
21103;SDS011;10710;53.398;-1.514;2023-09-12T13:44:48;3.00;;;0.90;;
21103;SDS011;10710;53.398;-1.514;2023-09-12T13:47:33;2.10;;;0.90;;
21103;SDS011;10710;53.398;-1.514;2023-09-12T13:50:17;3.00;;;0.68;;
21103;SDS011;10710;53.398;-1.514;2023-09-12T13:53:03;2.17;;;1.35;;
21103;SDS011;10710;53.398;-1.514;2023-09-12T13:55:49;1.70;;;0.80;;
21103;SDS011;10710;53.398;-1.514;2023-09-12T13:58:34;0.63;;;0.63;;
21103;SDS011;10710;53.398;-1.514;2023-09-12T14:01:19;3.88;;;1.50;;
21103;SDS011;10710;53.398;-1.514;2023-09-12T14:04:04;1.80;;;0.85;;
21103;SDS011;10710;53.398;-1.514;2023-09-12T14:06:49;1.50;;;0.95;;
21103;SDS011;10710;53.398;-1.514;2023-09-12T14:09:34;2.05;;;0.80;;
21103;SDS011;10710;53.398;-1.514;2023-09-12T14:12:20;1.00;;;0.80;;
21103;SDS011;10710;53.398;-1.514;2023-09-12T14:15:05;1.35;;;0.70;;
21103;SDS011;10710;53.398;-1.514;2023-09-12T14:17:50;2.00;;;1.50;;
21103;SDS011;10710;53.398;-1.514;2023-09-12T14:20:35;4.15;;;1.70;;
21103;SDS011;10710;53.398;-1.514;2023-09-12T14:23:20;1.15;;;0.82;;
21103;SDS011;10710;53.398;-1.514;2023-09-12T14:26:04;1.65;;;1.05;;
21103;SDS011;10710;53.398;-1.514;2023-09-12T14:28:49;3.00;;;1.35;;
21103;SDS011;10710;53.398;-1.514;2023-09-12T14:31:34;0.75;;;0.68;;
21103;SDS011;10710;53.398;-1.514;2023-09-12T14:34:20;1.90;;;1.00;;
21103;SDS011;10710;53.398;-1.514;2023-09-12T14:37:05;1.48;;;0.90;;
21103;SDS011;10710;53.398;-1.514;2023-09-12T14:39:50;4.60;;;0.90;;
21103;SDS011;10710;53.398;-1.514;2023-09-12T14:42:34;0.80;;;0.80;;
21103;SDS011;10710;53.398;-1.514;2023-09-12T14:45:19;1.70;;;0.82;;
21103;SDS011;10710;53.398;-1.514;2023-09-12T14:48:04;1.05;;;0.60;;
21103;SDS011;10710;53.398;-1.514;2023-09-12T14:50:49;0.93;;;0.80;;
21103;SDS011;10710;53.398;-1.514;2023-09-12T14:53:34;0.98;;;0.70;;
21103;SDS011;10710;53.398;-1.514;2023-09-12T14:56:19;3.50;;;1.02;;
21103;SDS011;10710;53.398;-1.514;2023-09-12T14:59:04;1.38;;;0.90;;
21103;SDS011;10710;53.398;-1.514;2023-09-12T15:01:50;3.08;;;1.30;;
21103;SDS011;10710;53.398;-1.514;2023-09-12T15:04:35;1.73;;;1.13;;
21103;SDS011;10710;53.398;-1.514;2023-09-12T15:07:20;2.30;;;0.75;;
21103;SDS011;10710;53.398;-1.514;2023-09-12T15:10:05;1.55;;;0.85;;
21103;SDS011;10710;53.398;-1.514;2023-09-12T15:12:49;4.05;;;0.80;;
21103;SDS011;10710;53.398;-1.514;2023-09-12T15:15:34;1.23;;;0.88;;
21103;SDS011;10710;53.398;-1.514;2023-09-12T15:18:19;1.60;;;1.00;;
21103;SDS011;10710;53.398;-1.514;2023-09-12T15:21:04;1.30;;;0.85;;
21103;SDS011;10710;53.398;-1.514;2023-09-12T15:23:49;2.85;;;0.95;;
21103;SDS011;10710;53.398;-1.514;2023-09-12T15:26:33;3.22;;;1.08;;
21103;SDS011;10710;53.398;-1.514;2023-09-12T15:29:18;2.60;;;1.00;;
21103;SDS011;10710;53.398;-1.514;2023-09-12T15:32:03;3.47;;;1.00;;
21103;SDS011;10710;53.398;-1.514;2023-09-12T15:34:49;2.10;;;0.80;;
21103;SDS011;10710;53.398;-1.514;2023-09-12T15:37:34;2.30;;;0.70;;
21103;SDS011;10710;53.398;-1.514;2023-09-12T15:40:19;2.45;;;1.48;;
21103;SDS011;10710;53.398;-1.514;2023-09-12T15:43:04;2.30;;;0.70;;
21103;SDS011;10710;53.398;-1.514;2023-09-12T15:45:48;3.60;;;0.73;;
21103;SDS011;10710;53.398;-1.514;2023-09-12T15:48:33;2.83;;;0.65;;
21103;SDS011;10710;53.398;-1.514;2023-09-12T15:51:17;0.82;;;0.60;;
21103;SDS011;10710;53.398;-1.514;2023-09-12T15:54:02;0.90;;;0.68;;
21103;SDS011;10710;53.398;-1.514;2023-09-12T15:56:47;3.08;;;2.00;;
21103;SDS011;10710;53.398;-1.514;2023-09-12T15:59:32;0.75;;;0.68;;
21103;SDS011;10710;53.398;-1.514;2023-09-12T16:02:16;3.20;;;1.02;;
21103;SDS011;10710;53.398;-1.514;2023-09-12T16:05:01;1.80;;;1.08;;
21103;SDS011;10710;53.398;-1.514;2023-09-12T16:07:46;1.20;;;0.88;;
21103;SDS011;10710;53.398;-1.514;2023-09-12T16:10:31;2.60;;;1.20;;
21103;SDS011;10710;53.398;-1.514;2023-09-12T16:13:15;1.80;;;0.73;;
21103;SDS011;10710;53.398;-1.514;2023-09-12T16:16:00;1.65;;;1.40;;
21103;SDS011;10710;53.398;-1.514;2023-09-12T16:18:45;1.90;;;0.80;;
21103;SDS011;10710;53.398;-1.514;2023-09-12T16:21:29;1.80;;;0.80;;
21103;SDS011;10710;53.398;-1.514;2023-09-12T16:24:17;1.33;;;0.60;;
21103;SDS011;10710;53.398;-1.514;2023-09-12T16:27:01;3.78;;;1.00;;
21103;SDS011;10710;53.398;-1.514;2023-09-12T16:29:46;3.25;;;0.80;;
21103;SDS011;10710;53.398;-1.514;2023-09-12T16:32:31;2.13;;;0.88;;
21103;SDS011;10710;53.398;-1.514;2023-09-12T16:35:16;2.20;;;1.00;;